Terminal Aerodrome Forecast
Issued by NWS

Home | Current Version | Previous Version | Text Only | Print | Product List | Glossary On
Versions: 1 2 3 4 5 6 7 8 9 10 11 12 13 14 15
000
FTUS43 KSGF 222300
TAFJLN
TAF
KJLN 222326Z 2300/2324 04005KT P6SM SCT250
     FM230900 VRB03KT P6SM BKN200
     FM231800 28005KT P6SM SCT200=

USA.gov is the U.S. government's official web portal to all federal, state and local government web resources and services.